KLAL/LAL METAR and TAF weather

Enter ICAO airport designator
Station Type Date Time Source
KLAL METAR 2021/05/15 00:49 UTC NOAA

KLAL 150049Z 04011G16KT 10SM BKN060 23/16 A3011


Station Type Date Time Source
KLAL Decoded METAR 2021/05/15 00:49 UTC NOAA

Lakeland Regional, FL, United States (KLAL) 27-59N 082-01W
May 14, 2021 - 08:49 PM EDT / 2021.05.15 0049 UTC
Wind: from the NE (040 degrees) at 13 MPH (11 KT) gusting to 18 MPH (16 KT):0
Visibility: 10 mile(s):0
Sky conditions: mostly cloudy
Temperature: 73 F (23 C)
Dew Point: 60 F (16 C)
Relative Humidity: 64%
Pressure (altimeter): 30.11 in. Hg (1019 hPa)
ob: KLAL 150049Z 04011G16KT 10SM BKN060 23/16 A3011
cycle: 1

Station Type Date Time Source
KLAL TAF 2021/05/14 18:28 UTC NOAA

TAF KLAL 141726Z 1418/1518 03010G15KT P6SM FEW030 SCT250
FM142000 05012G18KT P6SM FEW030 SCT250
FM142200 05017G23KT P6SM FEW030 SCT250
FM150200 05009KT P6SM FEW250
FM151500 05010G15KT P6SM FEW250

Example: see airport list